Nesbitt, Texas
Current Conditions -  °F | °C
As of 1:55 PM on Thursday 30 Oct 2014 (Local Time) from KASL Reporting Station
Clear Clear  
Wind Chill: 73°   Ceiling: Unl
Heat Index: 73°   Visibility: 10mi
Dew Point: 41°   Wind: 7mph
Humidity: 31%   Direction: 200°SSW
Pressure: 30.13"   Gusts: NA
Location:  32.4675°N, 94.3321°W
Report Text: KASL 301855Z AUTO 20006KT 10SM CLR 23/05 A3013 RMK AO1 T02300050
Loading
Personal Weather Stations






























Interactive Weather Map
Tropical Storm Tracking
New forecast layout! Learn more

10-Day Weather Forecast

Advertisements
Track Severe Weather on mobile